IE-0046 weather

Clonakilty Airstrip
County Cork, Ireland

Public forecast

Using degrees Celsius for public forecast. Weather courtesy of forecast.io.

Closest aviation weather report (METAR) to Clonakilty Airstrip

Closest report is Cork Airport, 20.4 nm (37.8 km) NE. Retrieved 2020/05/27 11:30 UTC (0 seconds ago):

EICK 271130Z 11007KT 9999 FEW020 18/13 Q1036 NOSIG

Closest aviation forecast (TAF) to Clonakilty Airstrip

Closest forecast is Cork Airport, 20.4 nm (37.8 km) NE. Retrieved 2020/05/27 06:09 UTC (5 hours ago):

TAF EICK 270500Z 2706/2806 VRB03KT 2000 BR SCT002 TEMPO 2706/2707 0400 FG BKN002 BECMG 2707/2709 9999 NSW SCT010 BECMG 2711/2713 11010KT BECMG 2720/2722 04005KT